KAPF/APF METAR and TAF weather

Enter ICAO airport designator
Station Type Date Time Source
KAPF METAR 2019/09/20 08:53 UTC NOAA

KAPF 200853Z AUTO 05009KT 10SM CLR 23/21 A2995 RMK AO2 SLP141 T02330211 55009


Station Type Date Time Source
KAPF Decoded METAR 2019/09/20 08:53 UTC NOAA

NAPLES MUNICIPAL AIRPORT, FL, United States (KAPF) 26-09N 081-46W
Sep 20, 2019 - 04:53 AM EDT / 2019.09.20 0853 UTC
Wind: from the NE (050 degrees) at 10 MPH (9 KT):0
Visibility: 10 mile(s):0
Sky conditions: clear
Temperature: 73.9 F (23.3 C)
Dew Point: 70.0 F (21.1 C)
Relative Humidity: 87%
Pressure (altimeter): 29.95 in. Hg (1014 hPa)
Pressure tendency: 0.03 inches (0.9 hPa) lower than three hours ago
ob: KAPF 200853Z AUTO 05009KT 10SM CLR 23/21 A2995 RMK AO2 SLP141 T02330211 55009
cycle: 9

Station Type Date Time Source
KAPF TAF 2019/09/20 09:54 UTC NOAA

TAF
AMD KAPF 200850Z 2009/2106 06011KT P6SM SCT030
FM201500 06014G24KT P6SM SCT050
FM210200 06012KT P6SM SCT030

Example: see airport list